Time;durP1;ratioP1;P1;durP2;ratioP2;P2;SDS_P1;SDS_P2;PMS_P1;PMS_P2;Temp;Humidity;BMP_temperature;BMP_pressure;BME280_temperature;BME280_humidity;BME280_pressure;Samples;Min_cycle;Max_cycle;Signal;HPM_P1;HPM_P2
2021/06/29 00:01:30;;;;;;;7.35;5.57;;;;;;;;;;5013505;28;20468;-79
2021/06/29 00:03:56;;;;;;;6.70;5.22;;;;;;;;;;5010758;28;20076;-80
2021/06/29 00:06:22;;;;;;;5.47;4.97;;;;;;;;;;5006253;28;20026;-80
2021/06/29 00:08:48;;;;;;;6.05;5.40;;;;;;;;;;5008059;28;20124;-79
2021/06/29 00:11:16;;;;;;;5.22;4.82;;;;;;;;;;5008967;28;20034;-79
2021/06/29 00:13:43;;;;;;;6.03;5.53;;;;;;;;;;5008963;28;20479;-78
2021/06/29 00:16:09;;;;;;;9.10;5.75;;;;;;;;;;4992488;28;20037;-80
2021/06/29 00:18:35;;;;;;;4.97;4.57;;;;;;;;;;5010945;28;20387;-79
2021/06/29 00:21:01;;;;;;;5.00;4.60;;;;;;;;;;5010369;28;20076;-79
2021/06/29 00:23:27;;;;;;;4.50;4.10;;;;;;;;;;5007821;28;20031;-79
2021/06/29 00:25:53;;;;;;;4.45;4.05;;;;;;;;;;4990406;28;20360;-80
2021/06/29 00:28:19;;;;;;;4.90;4.50;;;;;;;;;;5007723;28;20135;-79
2021/06/29 00:30:45;;;;;;;5.30;4.80;;;;;;;;;;5011591;28;20056;-80
2021/06/29 00:33:11;;;;;;;4.70;4.20;;;;;;;;;;5021095;28;20037;-80
2021/06/29 00:35:37;;;;;;;4.90;4.50;;;;;;;;;;5013380;28;20038;-79
2021/06/29 00:38:04;;;;;;;5.28;4.78;;;;;;;;;;4992132;28;20117;-79
2021/06/29 00:40:30;;;;;;;5.10;4.65;;;;;;;;;;5014853;28;20023;-77
2021/06/29 00:42:56;;;;;;;4.72;4.20;;;;;;;;;;5013463;28;20026;-80
2021/06/29 00:45:22;;;;;;;4.80;4.40;;;;;;;;;;5003517;28;20026;-79
2021/06/29 00:47:48;;;;;;;5.32;4.82;;;;;;;;;;5005720;28;20033;-80
2021/06/29 00:50:15;;;;;;;5.10;4.60;;;;;;;;;;5006841;28;20522;-79
2021/06/29 00:52:41;;;;;;;4.78;4.40;;;;;;;;;;5006460;28;20037;-79
2021/06/29 00:55:08;;;;;;;5.25;4.78;;;;;;;;;;5007626;28;20045;-79
2021/06/29 00:57:36;;;;;;;4.35;3.92;;;;;;;;;;5007250;28;20022;-80
2021/06/29 01:00:04;;;;;;;5.32;4.80;;;;;;;;;;5006999;28;20018;-79
2021/06/29 01:03:00;;;;;;;4.93;4.47;;;;;;;;;;4941920;29;20058;-78
2021/06/29 01:05:26;;;;;;;4.97;4.07;;;;;;;;;;4998869;28;20046;-79
2021/06/29 01:07:52;;;;;;;4.78;4.38;;;;;;;;;;5005121;28;20122;-78
2021/06/29 01:10:19;;;;;;;4.30;3.90;;;;;;;;;;5000678;28;20066;-80
2021/06/29 01:12:45;;;;;;;5.28;4.78;;;;;;;;;;4999837;28;20022;-80
2021/06/29 01:15:11;;;;;;;5.13;4.63;;;;;;;;;;4999769;28;20393;-79
2021/06/29 01:17:37;;;;;;;4.43;3.97;;;;;;;;;;4998981;28;20037;-79
2021/06/29 01:20:16;;;;;;;5.53;5.03;;;;;;;;;;4999081;28;20102;-79
2021/06/29 01:22:42;;;;;;;4.68;4.30;;;;;;;;;;4999085;28;20029;-79
2021/06/29 01:25:11;;;;;;;5.15;4.65;;;;;;;;;;4999381;28;20109;-79
2021/06/29 01:27:48;;;;;;;5.50;5.05;;;;;;;;;;4999021;28;20022;-80
2021/06/29 01:32:41;;;;;;;5.90;5.13;;;;;;;;;;5010793;28;20028;-79
2021/06/29 01:35:08;;;;;;;4.85;4.40;;;;;;;;;;5018928;28;20034;-79
2021/06/29 01:37:35;;;;;;;6.85;4.40;;;;;;;;;;5002728;28;20061;-78
2021/06/29 01:40:18;;;;;;;4.82;4.40;;;;;;;;;;4998200;28;20117;-79
2021/06/29 01:42:44;;;;;;;5.57;5.00;;;;;;;;;;4998505;28;20022;-79
2021/06/29 01:45:10;;;;;;;5.60;5.13;;;;;;;;;;4998310;28;20022;-79
2021/06/29 01:50:10;;;;;;;4.60;4.20;;;;;;;;;;5000283;28;20042;-79
2021/06/29 01:52:36;;;;;;;4.93;4.13;;;;;;;;;;4995811;28;20030;-79
2021/06/29 01:55:02;;;;;;;6.03;4.43;;;;;;;;;;4996435;28;20030;-79
2021/06/29 01:57:28;;;;;;;5.35;4.93;;;;;;;;;;4993869;28;20057;-80
2021/06/29 01:59:54;;;;;;;5.80;5.20;;;;;;;;;;4993402;28;20109;-79
2021/06/29 02:02:21;;;;;;;5.50;5.00;;;;;;;;;;5004629;28;20108;-80
2021/06/29 02:04:47;;;;;;;5.07;4.57;;;;;;;;;;4999199;28;20026;-79
2021/06/29 02:07:13;;;;;;;5.07;4.68;;;;;;;;;;4993714;28;20201;-79
2021/06/29 02:09:39;;;;;;;5.45;5.00;;;;;;;;;;4993161;28;20023;-79
2021/06/29 02:12:05;;;;;;;4.40;4.10;;;;;;;;;;4993124;28;20024;-79
2021/06/29 02:14:32;;;;;;;5.32;4.80;;;;;;;;;;4993486;28;20433;-78
2021/06/29 02:16:58;;;;;;;5.00;4.60;;;;;;;;;;4992970;28;20018;-79
2021/06/29 02:19:24;;;;;;;5.57;5.07;;;;;;;;;;4994097;28;20039;-79
2021/06/29 02:21:50;;;;;;;4.40;4.10;;;;;;;;;;4993335;28;20022;-79
2021/06/29 02:24:16;;;;;;;5.25;4.20;;;;;;;;;;4993452;28;20022;-79
2021/06/29 02:26:42;;;;;;;5.65;4.55;;;;;;;;;;4995358;28;20026;-78
2021/06/29 02:29:08;;;;;;;4.28;3.97;;;;;;;;;;4992325;28;20030;-78
2021/06/29 02:31:34;;;;;;;5.10;4.70;;;;;;;;;;5000535;28;20026;-78
2021/06/29 02:34:00;;;;;;;4.45;4.15;;;;;;;;;;4992022;28;20030;-79
2021/06/29 02:36:26;;;;;;;5.55;4.35;;;;;;;;;;4996003;28;20038;-78
2021/06/29 02:38:52;;;;;;;5.15;4.35;;;;;;;;;;4996615;28;20113;-78
2021/06/29 02:41:18;;;;;;;4.35;3.95;;;;;;;;;;4997636;28;20078;-78
2021/06/29 02:43:46;;;;;;;4.68;4.28;;;;;;;;;;4996902;28;20041;-78
2021/06/29 02:46:12;;;;;;;4.63;4.10;;;;;;;;;;4996965;28;20121;-78
2021/06/29 02:48:38;;;;;;;5.15;4.38;;;;;;;;;;4997083;28;20054;-78
2021/06/29 02:51:04;;;;;;;4.38;3.97;;;;;;;;;;4997021;28;20498;-79
2021/06/29 02:53:31;;;;;;;3.92;3.63;;;;;;;;;;4996664;28;20041;-78
2021/06/29 02:55:57;;;;;;;4.45;4.05;;;;;;;;;;4996491;28;20077;-77
2021/06/29 02:58:23;;;;;;;4.72;4.22;;;;;;;;;;4996028;28;20032;-79
2021/06/29 03:00:49;;;;;;;5.10;4.60;;;;;;;;;;5004123;28;20045;-78
2021/06/29 03:03:15;;;;;;;4.72;4.10;;;;;;;;;;5008594;28;20033;-78
2021/06/29 03:05:41;;;;;;;4.35;4.05;;;;;;;;;;5011975;28;20499;-77
2021/06/29 03:08:07;;;;;;;4.65;4.25;;;;;;;;;;4995380;28;20496;-77
2021/06/29 03:10:34;;;;;;;5.07;4.45;;;;;;;;;;4995509;28;20503;-77
2021/06/29 03:13:00;;;;;;;4.18;3.85;;;;;;;;;;4995256;28;20022;-78
2021/06/29 03:15:27;;;;;;;4.07;3.67;;;;;;;;;;4994531;28;20030;-77
2021/06/29 03:17:53;;;;;;;4.30;3.90;;;;;;;;;;4994321;28;20419;-77
2021/06/29 03:20:19;;;;;;;4.70;4.15;;;;;;;;;;4994776;28;20030;-77
2021/06/29 03:22:45;;;;;;;4.32;3.95;;;;;;;;;;4996027;28;20461;-77
2021/06/29 03:25:11;;;;;;;4.63;3.72;;;;;;;;;;5006505;28;20098;-79
2021/06/29 03:27:38;;;;;;;4.45;4.05;;;;;;;;;;5008405;28;20037;-77
2021/06/29 03:30:05;;;;;;;4.15;3.85;;;;;;;;;;4996257;28;20054;-77
2021/06/29 03:32:31;;;;;;;4.82;4.43;;;;;;;;;;5006654;28;20022;-78
2021/06/29 03:34:57;;;;;;;4.68;4.00;;;;;;;;;;5014457;28;20033;-78
2021/06/29 03:37:23;;;;;;;4.25;3.75;;;;;;;;;;5004982;28;20027;-77
2021/06/29 03:39:49;;;;;;;3.42;3.22;;;;;;;;;;4994302;28;20049;-77
2021/06/29 03:42:15;;;;;;;4.03;3.70;;;;;;;;;;4995615;28;20023;-77
2021/06/29 03:44:41;;;;;;;3.50;3.30;;;;;;;;;;4995983;28;20468;-78
2021/06/29 03:47:07;;;;;;;3.58;3.17;;;;;;;;;;4994002;28;20611;-77
2021/06/29 03:49:33;;;;;;;3.80;3.50;;;;;;;;;;4994707;28;20027;-77
2021/06/29 03:52:00;;;;;;;4.32;3.47;;;;;;;;;;4994887;28;20026;-77
2021/06/29 03:54:26;;;;;;;3.58;3.28;;;;;;;;;;4995405;28;20105;-77
2021/06/29 03:56:52;;;;;;;3.70;3.38;;;;;;;;;;4994717;28;20030;-77
2021/06/29 03:59:18;;;;;;;3.20;3.00;;;;;;;;;;4993641;28;20479;-77
2021/06/29 04:01:46;;;;;;;4.15;3.75;;;;;;;;;;5002274;28;20027;-77
2021/06/29 04:04:12;;;;;;;3.70;3.40;;;;;;;;;;5013255;28;20022;-77
2021/06/29 04:06:38;;;;;;;4.85;3.40;;;;;;;;;;5014163;28;20033;-77
2021/06/29 04:09:05;;;;;;;4.07;3.63;;;;;;;;;;4998773;28;20502;-77
2021/06/29 04:11:32;;;;;;;3.90;3.50;;;;;;;;;;4995581;28;20750;-76
2021/06/29 04:13:58;;;;;;;4.40;3.65;;;;;;;;;;4994378;28;20051;-77
2021/06/29 04:16:24;;;;;;;2.95;2.65;;;;;;;;;;4994534;28;20030;-77
2021/06/29 04:18:50;;;;;;;4.00;3.47;;;;;;;;;;4993432;28;20033;-77
2021/06/29 04:21:17;;;;;;;3.45;3.20;;;;;;;;;;4994012;28;20029;-76
2021/06/29 04:23:44;;;;;;;4.80;2.97;;;;;;;;;;4993600;28;20102;-77
2021/06/29 04:26:10;;;;;;;4.40;3.45;;;;;;;;;;4994017;28;20022;-77
2021/06/29 04:28:36;;;;;;;4.10;3.70;;;;;;;;;;4993653;28;20081;-77
2021/06/29 04:31:02;;;;;;;3.35;3.15;;;;;;;;;;5001953;28;20029;-77
2021/06/29 04:33:28;;;;;;;3.60;3.30;;;;;;;;;;5006399;28;20038;-77
2021/06/29 04:35:54;;;;;;;3.95;3.65;;;;;;;;;;5013530;28;20065;-77
2021/06/29 04:38:20;;;;;;;4.68;3.65;;;;;;;;;;5012165;28;20121;-77
2021/06/29 04:40:46;;;;;;;3.80;3.40;;;;;;;;;;4993907;28;20073;-77
2021/06/29 04:43:12;;;;;;;3.17;2.88;;;;;;;;;;4993689;28;20089;-76
2021/06/29 04:45:38;;;;;;;3.03;2.83;;;;;;;;;;4993364;28;20476;-77
2021/06/29 04:48:05;;;;;;;3.45;3.22;;;;;;;;;;4993223;28;20110;-77
2021/06/29 04:50:31;;;;;;;3.42;2.83;;;;;;;;;;4993226;28;20030;-76
2021/06/29 04:52:57;;;;;;;2.80;2.60;;;;;;;;;;4993813;28;20027;-77
2021/06/29 04:55:23;;;;;;;2.80;2.60;;;;;;;;;;4993235;28;20377;-76
2021/06/29 04:57:49;;;;;;;2.70;2.50;;;;;;;;;;4992689;28;20030;-77
2021/06/29 05:00:17;;;;;;;2.60;2.40;;;;;;;;;;4995500;28;20029;-77
2021/06/29 05:02:43;;;;;;;3.13;2.80;;;;;;;;;;5004508;28;20045;-76
2021/06/29 05:05:10;;;;;;;4.38;2.47;;;;;;;;;;5013087;28;20018;-76
2021/06/29 05:07:40;;;;;;;2.67;2.47;;;;;;;;;;5012807;28;20054;-76
2021/06/29 05:10:07;;;;;;;3.92;2.58;;;;;;;;;;5005845;28;20376;-77
2021/06/29 05:12:33;;;;;;;3.72;2.50;;;;;;;;;;4993233;28;20490;-76
2021/06/29 05:14:59;;;;;;;4.10;2.08;;;;;;;;;;4975755;28;20038;-76
2021/06/29 05:17:25;;;;;;;3.20;2.30;;;;;;;;;;4992616;28;20034;-76
2021/06/29 05:19:51;;;;;;;3.90;2.40;;;;;;;;;;4992563;28;20515;-76
2021/06/29 05:22:17;;;;;;;2.50;2.35;;;;;;;;;;4993099;28;20514;-77
2021/06/29 05:24:43;;;;;;;3.75;2.67;;;;;;;;;;4992572;28;20475;-77
2021/06/29 05:27:09;;;;;;;3.55;3.15;;;;;;;;;;4993174;28;20069;-77
2021/06/29 05:29:35;;;;;;;2.97;2.38;;;;;;;;;;4992694;28;20375;-77
2021/06/29 05:32:01;;;;;;;2.33;2.08;;;;;;;;;;5000869;28;20033;-77
2021/06/29 05:34:27;;;;;;;2.63;2.40;;;;;;;;;;4992848;28;20454;-78
2021/06/29 05:36:53;;;;;;;2.60;2.40;;;;;;;;;;4992786;28;20480;-77
2021/06/29 05:39:20;;;;;;;2.97;2.40;;;;;;;;;;4975409;28;20418;-77
2021/06/29 05:41:46;;;;;;;3.97;2.30;;;;;;;;;;4992613;28;20173;-77
2021/06/29 05:44:12;;;;;;;4.70;2.55;;;;;;;;;;4993730;28;20038;-77
2021/06/29 05:46:40;;;;;;;2.58;2.38;;;;;;;;;;4994103;28;20495;-77
2021/06/29 05:49:10;;;;;;;2.72;2.53;;;;;;;;;;4992317;28;20033;-77
2021/06/29 05:51:36;;;;;;;2.33;2.22;;;;;;;;;;4992668;28;20060;-76
2021/06/29 05:54:02;;;;;;;3.20;2.88;;;;;;;;;;4993484;28;20394;-77
2021/06/29 05:56:28;;;;;;;5.65;2.58;;;;;;;;;;4993351;28;20089;-77
2021/06/29 05:58:54;;;;;;;2.95;2.40;;;;;;;;;;4992615;28;20057;-76
2021/06/29 06:01:20;;;;;;;3.95;2.97;;;;;;;;;;4982383;28;20137;-77
2021/06/29 06:03:46;;;;;;;4.65;2.70;;;;;;;;;;5007767;28;20038;-77
2021/06/29 06:06:12;;;;;;;3.95;2.70;;;;;;;;;;5012468;28;20026;-77
2021/06/29 06:08:38;;;;;;;2.50;2.30;;;;;;;;;;5012797;28;20038;-76
2021/06/29 06:11:04;;;;;;;3.53;3.13;;;;;;;;;;5014774;28;20514;-77
2021/06/29 06:13:30;;;;;;;4.78;2.70;;;;;;;;;;4998125;28;20034;-76
2021/06/29 06:15:58;;;;;;;3.38;3.10;;;;;;;;;;4996525;28;20038;-76
2021/06/29 06:18:24;;;;;;;3.72;3.25;;;;;;;;;;4995664;28;20109;-77
2021/06/29 06:20:51;;;;;;;3.95;3.50;;;;;;;;;;4996445;28;20034;-76
2021/06/29 06:23:18;;;;;;;3.00;2.70;;;;;;;;;;4996815;28;20027;-77
2021/06/29 06:25:44;;;;;;;3.92;2.78;;;;;;;;;;4996512;28;20098;-76
2021/06/29 06:28:10;;;;;;;2.55;2.35;;;;;;;;;;4997571;28;20027;-78
2021/06/29 06:30:37;;;;;;;3.55;2.50;;;;;;;;;;5020155;28;20057;-77
2021/06/29 06:33:03;;;;;;;2.50;2.40;;;;;;;;;;5010570;28;20022;-77
2021/06/29 06:35:30;;;;;;;2.63;2.42;;;;;;;;;;4996161;28;20154;-77
2021/06/29 06:37:56;;;;;;;3.78;3.10;;;;;;;;;;4996182;28;20502;-75
2021/06/29 06:40:22;;;;;;;2.97;2.67;;;;;;;;;;4995973;28;20027;-76
2021/06/29 06:42:48;;;;;;;2.60;2.40;;;;;;;;;;4995663;28;20422;-76
2021/06/29 06:45:14;;;;;;;2.72;2.20;;;;;;;;;;4978843;28;20080;-76
2021/06/29 06:47:40;;;;;;;2.47;2.28;;;;;;;;;;4979199;28;20030;-77
2021/06/29 06:50:07;;;;;;;2.60;2.17;;;;;;;;;;4996227;28;20033;-76
2021/06/29 06:52:34;;;;;;;2.25;2.10;;;;;;;;;;4996622;28;20118;-76
2021/06/29 06:55:00;;;;;;;2.97;1.63;;;;;;;;;;4997144;28;20029;-77
2021/06/29 06:57:27;;;;;;;2.20;1.63;;;;;;;;;;4996528;28;20038;-77
2021/06/29 06:59:53;;;;;;;2.15;2.03;;;;;;;;;;4996139;28;20030;-77
2021/06/29 07:02:19;;;;;;;3.42;2.15;;;;;;;;;;5007057;28;20010;-76
2021/06/29 07:04:45;;;;;;;1.60;1.50;;;;;;;;;;4997424;28;20472;-77
2021/06/29 07:07:11;;;;;;;2.03;1.90;;;;;;;;;;4996830;28;20022;-76
2021/06/29 07:09:37;;;;;;;2.60;1.55;;;;;;;;;;4996132;28;20026;-76
2021/06/29 07:12:03;;;;;;;3.80;1.95;;;;;;;;;;4996417;28;20030;-75
2021/06/29 07:14:29;;;;;;;2.33;1.70;;;;;;;;;;4996528;28;20488;-76
2021/06/29 07:16:55;;;;;;;4.80;1.77;;;;;;;;;;4999603;28;20082;-76
2021/06/29 07:19:21;;;;;;;2.85;1.90;;;;;;;;;;4995873;28;20326;-76
2021/06/29 07:21:47;;;;;;;1.40;1.30;;;;;;;;;;4996169;28;20476;-76
2021/06/29 07:24:13;;;;;;;1.35;1.25;;;;;;;;;;4995745;28;20536;-75
2021/06/29 07:26:39;;;;;;;1.42;1.33;;;;;;;;;;4996364;28;20026;-77
2021/06/29 07:29:05;;;;;;;1.40;1.30;;;;;;;;;;4995862;28;20037;-77
2021/06/29 07:31:32;;;;;;;1.20;1.20;;;;;;;;;;5003733;28;20030;-77
2021/06/29 07:33:58;;;;;;;1.50;1.40;;;;;;;;;;5008838;28;20467;-77
2021/06/29 07:36:24;;;;;;;1.17;1.08;;;;;;;;;;4995761;28;20053;-76
2021/06/29 07:38:53;;;;;;;2.10;1.20;;;;;;;;;;4994741;28;20034;-77
2021/06/29 07:41:20;;;;;;;1.20;1.10;;;;;;;;;;4995513;28;20538;-76
2021/06/29 07:43:46;;;;;;;1.20;1.10;;;;;;;;;;4995294;28;20018;-77
2021/06/29 07:46:12;;;;;;;1.85;1.00;;;;;;;;;;4995041;28;20038;-76
2021/06/29 07:48:38;;;;;;;1.08;1.08;;;;;;;;;;4994794;28;20036;-77
2021/06/29 07:51:06;;;;;;;0.90;0.88;;;;;;;;;;5029605;22;20218;-83
2021/06/29 07:53:32;;;;;;;1.67;1.27;;;;;;;;;;5034887;28;20131;-82
2021/06/29 07:55:58;;;;;;;2.47;1.30;;;;;;;;;;5032275;28;20029;-80
2021/06/29 07:58:25;;;;;;;1.48;1.17;;;;;;;;;;5019936;28;20044;-80
2021/06/29 08:00:51;;;;;;;1.35;1.23;;;;;;;;;;5003289;28;20116;-81
2021/06/29 08:03:17;;;;;;;2.05;1.10;;;;;;;;;;5020302;28;20025;-80
2021/06/29 08:05:43;;;;;;;4.28;1.40;;;;;;;;;;5004555;28;20060;-81
2021/06/29 08:08:09;;;;;;;1.85;1.35;;;;;;;;;;5004416;28;20037;-82
2021/06/29 08:10:36;;;;;;;1.58;1.10;;;;;;;;;;5022082;28;20030;-82
2021/06/29 08:13:03;;;;;;;1.38;1.20;;;;;;;;;;5022908;28;20026;-83
2021/06/29 08:15:29;;;;;;;1.00;1.00;;;;;;;;;;5028825;28;20018;-82
2021/06/29 08:17:55;;;;;;;1.20;1.05;;;;;;;;;;5035776;28;20120;-82
2021/06/29 08:20:21;;;;;;;0.98;0.90;;;;;;;;;;5037290;28;20157;-82
2021/06/29 08:22:48;;;;;;;1.08;0.98;;;;;;;;;;5019929;28;20040;-81
2021/06/29 08:25:14;;;;;;;1.00;1.00;;;;;;;;;;5032902;28;20033;-83
2021/06/29 08:27:40;;;;;;;1.00;1.00;;;;;;;;;;5043444;28;20454;-81
2021/06/29 08:30:08;;;;;;;0.88;0.88;;;;;;;;;;5040100;28;20029;-80
2021/06/29 08:32:37;;;;;;;1.15;1.00;;;;;;;;;;5039885;28;20053;-80
2021/06/29 08:35:03;;;;;;;1.13;1.13;;;;;;;;;;5008358;28;20099;-79
2021/06/29 08:37:29;;;;;;;1.30;0.80;;;;;;;;;;5002262;28;20025;-80
2021/06/29 08:39:55;;;;;;;0.85;0.85;;;;;;;;;;5002320;28;20013;-81
2021/06/29 08:42:22;;;;;;;2.72;1.27;;;;;;;;;;5019465;28;20443;-80
2021/06/29 08:44:48;;;;;;;1.65;1.50;;;;;;;;;;5018866;28;20053;-81
2021/06/29 08:47:14;;;;;;;1.30;1.23;;;;;;;;;;5017534;28;20057;-80
2021/06/29 08:49:41;;;;;;;1.30;1.20;;;;;;;;;;5000649;28;20072;-83
2021/06/29 08:52:08;;;;;;;1.15;1.13;;;;;;;;;;5000094;28;20060;-82
2021/06/29 08:54:34;;;;;;;0.90;0.90;;;;;;;;;;5007338;28;20108;-80
2021/06/29 08:57:02;;;;;;;1.00;1.00;;;;;;;;;;5011828;28;20033;-80
2021/06/29 08:59:29;;;;;;;0.93;0.93;;;;;;;;;;5009741;28;20072;-80
2021/06/29 09:01:55;;;;;;;0.90;0.90;;;;;;;;;;5020408;28;20065;-83
2021/06/29 09:04:40;;;;;;;1.30;1.00;;;;;;;;;;5018141;28;20033;-82
2021/06/29 09:07:16;;;;;;;1.85;1.00;;;;;;;;;;5002067;28;20112;-81
2021/06/29 09:09:47;;;;;;;0.98;0.77;;;;;;;;;;5019895;28;20030;-82
2021/06/29 09:12:13;;;;;;;0.85;0.75;;;;;;;;;;5018478;28;20102;-81
2021/06/29 09:14:39;;;;;;;1.77;1.10;;;;;;;;;;5017938;28;20018;-83
2021/06/29 09:17:22;;;;;;;0.70;0.70;;;;;;;;;;5018404;28;20513;-82
2021/06/29 09:19:48;;;;;;;1.20;1.20;;;;;;;;;;5019043;28;20026;-83
2021/06/29 09:22:26;;;;;;;0.80;0.80;;;;;;;;;;5012539;28;20038;-83
2021/06/29 09:24:53;;;;;;;1.42;0.93;;;;;;;;;;5021092;28;20017;-81
2021/06/29 09:27:37;;;;;;;1.00;0.90;;;;;;;;;;5031720;28;20368;-80
2021/06/29 09:30:04;;;;;;;0.90;0.90;;;;;;;;;;5019663;28;20033;-82
2021/06/29 09:32:34;;;;;;;1.35;0.90;;;;;;;;;;5020678;28;20093;-81
2021/06/29 09:35:08;;;;;;;2.25;1.00;;;;;;;;;;5004281;28;20030;-82
2021/06/29 09:37:35;;;;;;;0.70;0.70;;;;;;;;;;5020876;28;20057;-83
2021/06/29 09:40:15;;;;;;;1.15;0.90;;;;;;;;;;5001858;28;20022;-82
2021/06/29 09:42:41;;;;;;;1.48;0.90;;;;;;;;;;5020081;28;20025;-82
2021/06/29 09:45:27;;;;;;;0.63;0.60;;;;;;;;;;5006179;28;20022;-83
2021/06/29 09:47:53;;;;;;;0.75;0.70;;;;;;;;;;5017843;28;20040;-82
2021/06/29 09:50:38;;;;;;;1.33;0.80;;;;;;;;;;5017892;28;20062;-83
2021/06/29 09:53:11;;;;;;;2.03;1.00;;;;;;;;;;5017497;28;20041;-82
2021/06/29 09:55:48;;;;;;;1.00;0.70;;;;;;;;;;5033236;28;20029;-82
2021/06/29 09:58:15;;;;;;;0.98;0.90;;;;;;;;;;5035308;28;20054;-82
2021/06/29 10:00:41;;;;;;;1.15;0.80;;;;;;;;;;5026260;28;20061;-82
2021/06/29 10:03:18;;;;;;;0.80;0.80;;;;;;;;;;5017803;28;20097;-82
2021/06/29 10:05:44;;;;;;;0.90;0.90;;;;;;;;;;4999641;28;20184;-83
2021/06/29 10:08:11;;;;;;;0.52;0.52;;;;;;;;;;5017395;28;20025;-81
2021/06/29 10:10:37;;;;;;;0.52;0.52;;;;;;;;;;5019740;28;20099;-82
2021/06/29 10:13:16;;;;;;;1.13;0.88;;;;;;;;;;5018254;28;20026;-81
2021/06/29 10:15:42;;;;;;;0.68;0.68;;;;;;;;;;5018798;28;20041;-80
2021/06/29 10:18:11;;;;;;;1.10;0.90;;;;;;;;;;4998182;28;20062;-82
2021/06/29 10:21:01;;;;;;;0.75;0.75;;;;;;;;;;5016288;28;20061;-80
2021/06/29 10:23:24;;;;;;;0.77;0.77;;;;;;;;;;5020895;28;20105;-81
2021/06/29 10:25:50;;;;;;;2.38;0.80;;;;;;;;;;5034614;28;20368;-81
2021/06/29 10:28:18;;;;;;;2.67;1.08;;;;;;;;;;5003359;28;20026;-82
2021/06/29 10:30:45;;;;;;;0.90;0.90;;;;;;;;;;5017767;28;20076;-82
2021/06/29 10:33:16;;;;;;;1.25;0.90;;;;;;;;;;4999423;28;20480;-82
2021/06/29 10:35:42;;;;;;;0.93;0.77;;;;;;;;;;5017127;28;20082;-81
2021/06/29 10:38:10;;;;;;;0.90;0.90;;;;;;;;;;4999603;28;20525;-83
2021/06/29 10:40:37;;;;;;;0.73;0.73;;;;;;;;;;5003310;28;20021;-83
2021/06/29 10:43:03;;;;;;;0.95;0.95;;;;;;;;;;5001629;28;20233;-80
2021/06/29 10:45:36;;;;;;;1.42;0.77;;;;;;;;;;5015975;28;20374;-83
2021/06/29 10:48:18;;;;;;;0.82;0.70;;;;;;;;;;5017573;28;20022;-81
2021/06/29 10:50:44;;;;;;;0.85;0.82;;;;;;;;;;5001835;28;20067;-83
2021/06/29 10:53:50;;;;;;;1.05;1.05;;;;;;;;;;5018750;28;20038;-82
2021/06/29 10:56:17;;;;;;;1.23;1.13;;;;;;;;;;4922660;29;20024;-83
2021/06/29 10:58:48;;;;;;;1.50;1.00;;;;;;;;;;4921679;29;20036;-81
2021/06/29 11:01:21;;;;;;;1.65;1.55;;;;;;;;;;4967237;28;20034;-82
2021/06/29 11:03:47;;;;;;;2.45;0.95;;;;;;;;;;5001113;28;20016;-85
2021/06/29 11:06:13;;;;;;;1.05;0.95;;;;;;;;;;5001550;28;20023;-83
2021/06/29 11:08:46;;;;;;;1.63;1.40;;;;;;;;;;5008210;28;20025;-83
2021/06/29 11:11:20;;;;;;;2.55;1.27;;;;;;;;;;5038718;28;20022;-82
2021/06/29 11:13:48;;;;;;;0.98;0.93;;;;;;;;;;5019510;28;20018;-84
2021/06/29 11:16:14;;;;;;;1.10;1.00;;;;;;;;;;5021578;28;20334;-82
2021/06/29 11:18:40;;;;;;;2.38;1.02;;;;;;;;;;5021428;28;20018;-83
2021/06/29 11:21:09;;;;;;;1.55;1.20;;;;;;;;;;5038633;28;20033;-82
2021/06/29 11:23:36;;;;;;;1.35;1.25;;;;;;;;;;5046517;28;20029;-82
2021/06/29 11:26:24;;;;;;;1.30;1.20;;;;;;;;;;5038740;28;20061;-83
2021/06/29 11:28:51;;;;;;;1.15;1.05;;;;;;;;;;5036177;28;20112;-82
2021/06/29 11:31:20;;;;;;;1.58;1.30;;;;;;;;;;5036576;28;20037;-80
2021/06/29 11:33:54;;;;;;;1.83;0.80;;;;;;;;;;5037638;28;20062;-84
2021/06/29 11:36:29;;;;;;;1.10;1.10;;;;;;;;;;5038094;28;20030;-80
2021/06/29 11:38:55;;;;;;;1.00;0.95;;;;;;;;;;5026764;28;20062;-83
2021/06/29 11:41:32;;;;;;;4.07;1.00;;;;;;;;;;5021191;28;20022;-83
2021/06/29 11:44:07;;;;;;;1.60;1.20;;;;;;;;;;5021285;28;20107;-82
2021/06/29 11:46:52;;;;;;;0.70;0.70;;;;;;;;;;5019338;28;20433;-83
2021/06/29 11:49:19;;;;;;;1.17;0.93;;;;;;;;;;5024088;28;20041;-82
2021/06/29 11:52:01;;;;;;;1.42;1.00;;;;;;;;;;5012015;28;20065;-82
2021/06/29 11:54:57;;;;;;;1.60;0.80;;;;;;;;;;5016442;28;20433;-82
2021/06/29 11:57:23;;;;;;;1.17;1.08;;;;;;;;;;5008375;28;20370;-82
2021/06/29 11:59:50;;;;;;;1.10;1.00;;;;;;;;;;5002593;28;20090;-82
2021/06/29 12:02:23;;;;;;;2.15;1.00;;;;;;;;;;5003544;28;20026;-81
2021/06/29 12:05:04;;;;;;;0.80;0.80;;;;;;;;;;5005911;28;20053;-82
2021/06/29 12:07:39;;;;;;;1.13;1.05;;;;;;;;;;5022208;28;20033;-81
2021/06/29 12:10:26;;;;;;;0.73;0.73;;;;;;;;;;5024655;28;20040;-84
2021/06/29 12:12:52;;;;;;;1.20;1.17;;;;;;;;;;5019642;28;20066;-83
2021/06/29 12:15:20;;;;;;;0.98;0.98;;;;;;;;;;5005032;28;20022;-83
2021/06/29 12:17:50;;;;;;;1.52;0.88;;;;;;;;;;5003838;28;20022;-81
2021/06/29 12:20:17;;;;;;;0.98;0.98;;;;;;;;;;5004712;28;20022;-83
2021/06/29 12:22:44;;;;;;;1.17;1.08;;;;;;;;;;5009066;28;20454;-84
2021/06/29 12:25:22;;;;;;;1.25;1.15;;;;;;;;;;5018294;28;20101;-82
2021/06/29 12:27:49;;;;;;;1.10;1.10;;;;;;;;;;5025784;28;20033;-83
2021/06/29 12:30:19;;;;;;;1.38;1.33;;;;;;;;;;5009931;28;20050;-82
2021/06/29 12:32:45;;;;;;;1.10;1.00;;;;;;;;;;5026396;28;20052;-82
2021/06/29 12:35:12;;;;;;;1.00;1.00;;;;;;;;;;5018751;28;20018;-82
2021/06/29 12:37:56;;;;;;;1.25;1.15;;;;;;;;;;5019804;28;20026;-82
2021/06/29 12:40:23;;;;;;;2.35;1.15;;;;;;;;;;5006821;28;20084;-82
2021/06/29 12:42:49;;;;;;;0.98;0.98;;;;;;;;;;5026012;28;20026;-80
2021/06/29 12:45:16;;;;;;;1.05;1.05;;;;;;;;;;5010937;28;20056;-80
2021/06/29 12:47:42;;;;;;;1.30;1.20;;;;;;;;;;5012085;28;20030;-81
2021/06/29 12:50:08;;;;;;;1.58;1.42;;;;;;;;;;5025435;28;20029;-80
2021/06/29 12:52:36;;;;;;;1.30;1.15;;;;;;;;;;5026031;28;20068;-81
2021/06/29 12:55:03;;;;;;;2.15;1.00;;;;;;;;;;5021757;28;20022;-82
2021/06/29 12:57:29;;;;;;;0.80;0.80;;;;;;;;;;5017277;28;20048;-80
2021/06/29 12:59:55;;;;;;;7.60;1.38;;;;;;;;;;5000813;28;20030;-79
2021/06/29 13:02:24;;;;;;;4.18;1.58;;;;;;;;;;5021332;28;20041;-81
2021/06/29 13:04:59;;;;;;;2.47;1.30;;;;;;;;;;5023633;28;20018;-83
2021/06/29 13:07:25;;;;;;;3.25;1.17;;;;;;;;;;5002212;28;20034;-83
2021/06/29 13:09:51;;;;;;;1.33;1.23;;;;;;;;;;5019923;28;20479;-83
2021/06/29 13:12:21;;;;;;;1.15;1.05;;;;;;;;;;5019917;28;20029;-82
2021/06/29 13:14:55;;;;;;;1.77;1.20;;;;;;;;;;5021359;28;20398;-82
2021/06/29 13:17:21;;;;;;;0.90;0.90;;;;;;;;;;5002198;28;20026;-81
2021/06/29 13:19:47;;;;;;;1.45;1.00;;;;;;;;;;5001065;28;20455;-83
2021/06/29 13:22:14;;;;;;;1.20;1.10;;;;;;;;;;5003017;28;20014;-82
2021/06/29 13:24:51;;;;;;;5.15;1.92;;;;;;;;;;5024866;28;20049;-82
2021/06/29 13:27:27;;;;;;;1.33;1.00;;;;;;;;;;5018488;28;20026;-82
2021/06/29 13:30:05;;;;;;;0.82;0.82;;;;;;;;;;5020004;28;20060;-81
2021/06/29 13:32:36;;;;;;;1.67;1.38;;;;;;;;;;5017786;28;20026;-80
2021/06/29 13:35:04;;;;;;;2.35;1.17;;;;;;;;;;5002782;28;20027;-82
2021/06/29 13:37:30;;;;;;;12.60;2.25;;;;;;;;;;5005505;28;20098;-82
2021/06/29 13:40:13;;;;;;;2.83;1.60;;;;;;;;;;5007944;28;20034;-82
2021/06/29 13:42:39;;;;;;;7.60;1.65;;;;;;;;;;5009240;28;20025;-81
2021/06/29 13:45:06;;;;;;;2.17;1.50;;;;;;;;;;5022818;28;20026;-83
2021/06/29 13:47:45;;;;;;;9.32;2.80;;;;;;;;;;5021336;28;20045;-84
2021/06/29 13:50:11;;;;;;;2.70;1.05;;;;;;;;;;5019261;28;20026;-82
2021/06/29 13:52:52;;;;;;;1.48;1.38;;;;;;;;;;5048161;23;20125;-76
2021/06/29 13:55:18;;;;;;;2.38;1.45;;;;;;;;;;5024450;28;20107;-77
2021/06/29 13:57:44;;;;;;;2.40;1.52;;;;;;;;;;5031770;28;20025;-77
2021/06/29 14:00:39;;;;;;;1.10;1.00;;;;;;;;;;5031762;28;20098;-77
2021/06/29 14:03:09;;;;;;;5.72;1.30;;;;;;;;;;5019177;28;20543;-77
2021/06/29 14:05:38;;;;;;;3.20;1.20;;;;;;;;;;5013521;28;20038;-77
2021/06/29 14:08:18;;;;;;;1.10;1.00;;;;;;;;;;5012189;28;20080;-78
2021/06/29 14:10:46;;;;;;;1.30;1.20;;;;;;;;;;4995371;28;20403;-76
2021/06/29 14:13:12;;;;;;;2.05;1.10;;;;;;;;;;5012581;28;20029;-77
2021/06/29 14:15:38;;;;;;;1.92;1.52;;;;;;;;;;5031154;28;20025;-77
2021/06/29 14:18:05;;;;;;;1.40;1.30;;;;;;;;;;5031699;28;20436;-78
2021/06/29 14:20:32;;;;;;;1.30;1.20;;;;;;;;;;5032680;28;20494;-77
2021/06/29 14:22:58;;;;;;;6.13;1.38;;;;;;;;;;5024076;28;20021;-76
2021/06/29 14:25:24;;;;;;;2.42;1.75;;;;;;;;;;5025076;28;20029;-77
2021/06/29 14:27:51;;;;;;;1.58;1.20;;;;;;;;;;5032573;28;20691;-77
2021/06/29 14:30:18;;;;;;;1.60;1.20;;;;;;;;;;5031937;28;20045;-77
2021/06/29 14:32:44;;;;;;;1.50;1.40;;;;;;;;;;5018865;28;20029;-77
2021/06/29 14:35:10;;;;;;;1.20;1.10;;;;;;;;;;5029671;28;20018;-76
2021/06/29 14:37:37;;;;;;;3.28;0.90;;;;;;;;;;5000929;28;20025;-77
2021/06/29 14:40:04;;;;;;;1.67;1.25;;;;;;;;;;5016852;28;20022;-77
2021/06/29 14:42:30;;;;;;;2.03;1.25;;;;;;;;;;5015221;28;20072;-76
2021/06/29 14:44:57;;;;;;;1.25;1.15;;;;;;;;;;5016843;28;20545;-77
2021/06/29 14:47:23;;;;;;;1.08;1.08;;;;;;;;;;5016949;28;20017;-78
2021/06/29 14:49:49;;;;;;;1.25;1.20;;;;;;;;;;4995749;28;20167;-77
2021/06/29 14:52:15;;;;;;;1.42;1.33;;;;;;;;;;5027309;28;20041;-77
2021/06/29 14:54:41;;;;;;;1.30;1.20;;;;;;;;;;5027667;28;20097;-77